Time;durP1;ratioP1;P1;durP2;ratioP2;P2;SDS_P1;SDS_P2;PMS_P1;PMS_P2;Temp;Humidity;BMP_temperature;BMP_pressure;BME280_temperature;BME280_humidity;BME280_pressure;Samples;Min_cycle;Max_cycle;Signal;HPM_P1;HPM_P2
2023/05/02 00:00:22;;;;;;;64.67;29.27;;;14.00;99.90;;;;;;5116161;27;20173;-76
2023/05/02 00:02:48;;;;;;;66.47;30.97;;;14.00;99.90;;;;;;5106764;28;20179;-77
2023/05/02 00:05:15;;;;;;;62.43;29.43;;;13.90;99.90;;;;;;5118158;28;20222;-77
2023/05/02 00:07:40;;;;;;;63.10;28.77;;;13.70;99.90;;;;;;5117722;28;20209;-77
2023/05/02 00:10:07;;;;;;;68.10;30.73;;;13.70;99.90;;;;;;5119456;27;20217;-77
2023/05/02 00:12:33;;;;;;;55.80;28.03;;;13.70;99.90;;;;;;5118628;27;20185;-78
2023/05/02 00:15:00;;;;;;;61.10;29.47;;;13.80;99.90;;;;;;5119828;27;20649;-77
2023/05/02 00:17:26;;;;;;;58.53;29.40;;;13.80;99.90;;;;;;5117613;27;20222;-75
2023/05/02 00:19:51;;;;;;;55.77;26.87;;;13.90;99.90;;;;;;5102695;27;20687;-75
2023/05/02 00:22:17;;;;;;;52.40;28.50;;;13.90;99.90;;;;;;5135510;27;20264;-75
2023/05/02 00:24:43;;;;;;;56.67;26.67;;;13.90;99.90;;;;;;5107375;28;20181;-75
2023/05/02 00:27:09;;;;;;;51.87;26.53;;;14.00;99.90;;;;;;5108492;27;20180;-76
2023/05/02 00:29:35;;;;;;;46.43;25.37;;;13.90;99.90;;;;;;5117175;27;20187;-75
2023/05/02 00:32:01;;;;;;;54.97;26.80;;;13.80;99.90;;;;;;5099698;28;20185;-75
2023/05/02 00:34:30;;;;;;;53.13;25.40;;;13.90;99.90;;;;;;5098784;28;20189;-75
2023/05/02 00:36:56;;;;;;;50.50;25.80;;;14.00;99.90;;;;;;5116714;28;20178;-75
2023/05/02 00:39:22;;;;;;;50.10;26.70;;;14.00;99.90;;;;;;5099323;28;20212;-74
2023/05/02 00:41:47;;;;;;;46.80;23.97;;;13.90;99.90;;;;;;5098554;28;20188;-75
2023/05/02 00:44:13;;;;;;;47.57;25.70;;;13.90;99.90;;;;;;5116598;27;20176;-75
2023/05/02 00:46:40;;;;;;;48.07;26.40;;;13.90;99.90;;;;;;5097966;28;20181;-74
2023/05/02 00:49:06;;;;;;;45.23;25.27;;;13.90;99.90;;;;;;5098171;28;20338;-75
2023/05/02 00:51:34;;;;;;;48.60;24.67;;;13.90;99.90;;;;;;5098057;27;20186;-75
2023/05/02 00:54:00;;;;;;;54.00;26.03;;;13.70;99.90;;;;;;5099474;28;20197;-75
2023/05/02 00:56:26;;;;;;;47.83;25.73;;;13.80;99.90;;;;;;5108992;28;20178;-75
2023/05/02 00:58:52;;;;;;;49.00;26.77;;;13.80;99.90;;;;;;5115936;28;20562;-75
2023/05/02 01:01:31;;;;;;;52.17;24.73;;;13.90;99.90;;;;;;5116215;27;20173;-75
2023/05/02 01:04:00;;;;;;;50.33;26.13;;;13.90;99.90;;;;;;5099022;28;20230;-74
2023/05/02 01:06:40;;;;;;;47.47;25.77;;;13.90;99.90;;;;;;5097774;28;20185;-75
2023/05/02 01:09:23;;;;;;;46.87;25.93;;;13.80;99.90;;;;;;5115932;27;20193;-75
2023/05/02 01:12:04;;;;;;;46.60;26.17;;;13.60;99.90;;;;;;5096446;28;20186;-75
2023/05/02 01:14:34;;;;;;;48.73;26.07;;;13.70;99.90;;;;;;5133549;27;20196;-75
2023/05/02 01:17:05;;;;;;;49.57;27.43;;;13.60;99.90;;;;;;5114207;28;20626;-75
2023/05/02 01:19:35;;;;;;;50.37;26.43;;;13.70;99.90;;;;;;5097544;28;20213;-74
2023/05/02 01:22:04;;;;;;;47.40;27.67;;;13.70;99.90;;;;;;5101040;27;20178;-75
2023/05/02 01:25:00;;;;;;;50.63;25.57;;;13.60;99.90;;;;;;5136267;27;20162;-74
2023/05/02 01:28:08;;;;;;;52.90;27.23;;;13.50;99.90;;;;;;5106105;28;20186;-75
2023/05/02 01:30:37;;;;;;;54.90;28.10;;;13.50;99.90;;;;;;5098930;28;20185;-75
2023/05/02 01:33:05;;;;;;;49.70;27.17;;;13.50;99.90;;;;;;5097050;28;20185;-75
2023/05/02 01:35:34;;;;;;;52.50;29.60;;;13.40;99.90;;;;;;5097321;28;20181;-74
2023/05/02 01:38:01;;;;;;;54.20;30.50;;;13.50;99.90;;;;;;5096700;28;20213;-74
2023/05/02 01:40:28;;;;;;;53.57;28.17;;;13.50;99.90;;;;;;5116306;27;20178;-75
2023/05/02 01:42:56;;;;;;;59.40;30.13;;;13.50;99.90;;;;;;5096800;28;20181;-75
2023/05/02 01:45:24;;;;;;;51.50;28.07;;;13.50;99.90;;;;;;5115535;28;20509;-75
2023/05/02 01:47:51;;;;;;;53.00;28.00;;;13.50;99.90;;;;;;5099161;27;20181;-75
2023/05/02 01:50:20;;;;;;;49.17;26.40;;;13.50;99.90;;;;;;5132574;27;21616;-75
2023/05/02 01:52:50;;;;;;;45.00;25.73;;;13.40;99.90;;;;;;5134689;27;20173;-75
2023/05/02 01:55:17;;;;;;;52.67;28.27;;;13.50;99.90;;;;;;5117322;27;20177;-74
2023/05/02 01:57:45;;;;;;;45.40;26.30;;;13.50;99.90;;;;;;5116589;27;20178;-75
2023/05/02 02:00:11;;;;;;;52.30;27.67;;;13.40;99.90;;;;;;5101706;27;20181;-75
2023/05/02 02:02:40;;;;;;;47.53;26.10;;;13.40;99.90;;;;;;5134497;27;20279;-76
2023/05/02 02:05:07;;;;;;;50.27;26.67;;;13.40;99.90;;;;;;5134842;27;20248;-76
2023/05/02 02:07:34;;;;;;;46.67;24.63;;;13.40;99.90;;;;;;5135046;27;20181;-77
2023/05/02 02:10:00;;;;;;;44.73;26.67;;;13.50;99.90;;;;;;5116395;27;20181;-76
2023/05/02 02:13:03;;;;;;;52.30;26.33;;;13.50;99.90;;;;;;5116602;27;20634;-76
2023/05/02 02:15:33;;;;;;;52.93;27.53;;;13.60;99.90;;;;;;5012205;28;20195;-76
2023/05/02 02:18:10;;;;;;;54.00;28.47;;;13.60;99.90;;;;;;5085237;27;20208;-77
2023/05/02 02:20:38;;;;;;;57.27;27.67;;;13.40;99.90;;;;;;5096880;28;20199;-76
2023/05/02 02:23:07;;;;;;;51.23;27.03;;;13.30;99.90;;;;;;5130618;27;20514;-76
2023/05/02 02:25:34;;;;;;;53.27;27.70;;;13.40;99.90;;;;;;5120733;27;20189;-76
2023/05/02 02:28:00;;;;;;;47.67;25.30;;;13.40;99.90;;;;;;5108519;27;20265;-76
2023/05/02 02:30:26;;;;;;;55.50;28.23;;;13.50;99.90;;;;;;5130728;27;20192;-76
2023/05/02 02:32:52;;;;;;;49.13;26.73;;;13.50;99.90;;;;;;5123922;27;20173;-76
2023/05/02 02:35:19;;;;;;;55.70;27.23;;;13.30;99.90;;;;;;5114022;27;20193;-76
2023/05/02 02:37:49;;;;;;;52.00;27.30;;;13.30;99.90;;;;;;5110508;27;20186;-76
2023/05/02 02:40:38;;;;;;;47.90;26.97;;;13.30;99.90;;;;;;5108273;27;20223;-76
2023/05/02 02:43:28;;;;;;;43.67;25.10;;;13.20;99.90;;;;;;5113940;28;20204;-78
2023/05/02 02:46:12;;;;;;;40.60;23.30;;;13.10;99.90;;;;;;5097108;28;20189;-77
2023/05/02 02:48:57;;;;;;;41.63;23.00;;;13.00;99.90;;;;;;5133204;27;20242;-76
2023/05/02 02:51:37;;;;;;;41.83;23.10;;;13.00;99.90;;;;;;5114397;27;20175;-77
2023/05/02 02:54:15;;;;;;;38.60;21.83;;;13.00;99.90;;;;;;5134433;27;20164;-77
2023/05/02 02:56:46;;;;;;;40.87;23.07;;;12.90;99.90;;;;;;5135196;27;20181;-77
2023/05/02 02:59:23;;;;;;;41.27;21.57;;;12.90;99.90;;;;;;5134682;27;20260;-77
2023/05/02 03:02:08;;;;;;;41.90;22.17;;;12.80;99.90;;;;;;5114561;27;20173;-77
2023/05/02 03:04:41;;;;;;;40.47;22.37;;;12.70;99.90;;;;;;5095949;28;20233;-76
2023/05/02 03:07:08;;;;;;;41.90;22.50;;;12.80;99.90;;;;;;5127677;27;20180;-77
2023/05/02 03:09:44;;;;;;;40.83;22.67;;;12.90;99.90;;;;;;5134933;27;20194;-77
2023/05/02 03:12:10;;;;;;;39.10;21.43;;;12.90;99.90;;;;;;5127130;27;20203;-76
2023/05/02 03:14:37;;;;;;;43.37;23.37;;;13.00;99.90;;;;;;5113645;28;20217;-77
2023/05/02 03:17:02;;;;;;;42.97;22.17;;;13.10;99.90;;;;;;5113738;28;20178;-77
2023/05/02 03:19:28;;;;;;;43.37;23.70;;;13.00;99.90;;;;;;5113386;27;20190;-77
2023/05/02 03:21:57;;;;;;;40.10;23.07;;;13.20;99.90;;;;;;5099794;27;20169;-78
2023/05/02 03:24:22;;;;;;;42.00;23.43;;;13.10;99.90;;;;;;5111279;28;20546;-76
2023/05/02 03:26:48;;;;;;;45.77;24.40;;;13.20;99.90;;;;;;5113930;28;20181;-76
2023/05/02 03:29:15;;;;;;;42.67;23.43;;;13.10;99.90;;;;;;5117666;27;20279;-76
2023/05/02 03:31:41;;;;;;;46.93;25.30;;;13.00;99.90;;;;;;5103044;27;20272;-76
2023/05/02 03:34:07;;;;;;;41.37;23.57;;;12.90;99.90;;;;;;5133266;27;20219;-77
2023/05/02 03:36:34;;;;;;;41.67;22.77;;;12.80;99.90;;;;;;5107416;28;20188;-77
2023/05/02 03:38:59;;;;;;;45.07;26.20;;;12.60;99.90;;;;;;5095340;28;20575;-77
2023/05/02 03:41:26;;;;;;;43.50;24.73;;;12.50;99.90;;;;;;5113315;27;20177;-77
2023/05/02 03:43:53;;;;;;;49.83;25.27;;;12.40;99.90;;;;;;5094946;28;20188;-77
2023/05/02 03:46:20;;;;;;;44.10;23.70;;;12.50;99.90;;;;;;5095758;28;20181;-77
2023/05/02 03:48:46;;;;;;;48.90;24.53;;;12.50;99.90;;;;;;5112830;28;20196;-77
2023/05/02 03:51:12;;;;;;;50.20;24.97;;;12.40;99.90;;;;;;5113467;28;20219;-76
2023/05/02 03:53:38;;;;;;;46.80;24.67;;;12.60;99.90;;;;;;5114265;28;20188;-77
2023/05/02 03:56:06;;;;;;;51.50;25.83;;;12.60;99.90;;;;;;5113011;28;20642;-78
2023/05/02 03:58:32;;;;;;;49.03;24.07;;;12.50;99.90;;;;;;5113058;28;20699;-77
2023/05/02 04:00:58;;;;;;;41.70;23.93;;;12.40;99.90;;;;;;5113133;28;20168;-77
2023/05/02 04:03:24;;;;;;;47.00;25.10;;;12.30;99.90;;;;;;5121415;28;20689;-77
2023/05/02 04:05:50;;;;;;;43.77;24.43;;;12.30;99.90;;;;;;5115297;28;20175;-77
2023/05/02 04:08:16;;;;;;;48.17;24.80;;;12.30;99.90;;;;;;5129729;28;20664;-77
2023/05/02 04:10:43;;;;;;;53.50;25.90;;;12.30;99.90;;;;;;5128948;28;20272;-77
2023/05/02 04:13:09;;;;;;;48.63;25.97;;;12.30;99.90;;;;;;5133354;28;20200;-77
2023/05/02 04:15:34;;;;;;;49.13;25.70;;;12.50;99.90;;;;;;5113671;28;20231;-77
2023/05/02 04:18:00;;;;;;;50.63;25.60;;;12.40;99.90;;;;;;5117980;28;20231;-76
2023/05/02 04:20:27;;;;;;;53.47;25.67;;;12.30;99.90;;;;;;5095609;28;20185;-77
2023/05/02 04:22:54;;;;;;;48.87;26.07;;;12.30;99.90;;;;;;5112821;28;20191;-77
2023/05/02 04:25:21;;;;;;;52.87;27.80;;;12.30;99.90;;;;;;5125194;28;20170;-78
2023/05/02 04:27:47;;;;;;;54.23;27.63;;;12.30;99.90;;;;;;5094660;28;20207;-76
2023/05/02 04:30:13;;;;;;;53.70;27.57;;;12.40;99.90;;;;;;5113078;28;20665;-77
2023/05/02 04:32:40;;;;;;;54.73;26.10;;;12.50;99.90;;;;;;5111873;28;20259;-78
2023/05/02 04:35:06;;;;;;;53.60;27.20;;;12.50;99.90;;;;;;5112816;28;20623;-78
2023/05/02 04:37:32;;;;;;;53.37;26.90;;;12.60;99.90;;;;;;5112080;28;20169;-77
2023/05/02 04:39:57;;;;;;;51.50;26.90;;;12.60;99.90;;;;;;5126065;28;20558;-77
2023/05/02 04:42:23;;;;;;;51.87;26.80;;;12.80;99.90;;;;;;5115590;28;20169;-77
2023/05/02 04:44:49;;;;;;;50.00;26.73;;;12.80;99.90;;;;;;5114666;28;20272;-77
2023/05/02 04:47:15;;;;;;;52.63;26.93;;;12.90;99.90;;;;;;5122461;28;20177;-78
2023/05/02 04:49:41;;;;;;;54.03;27.27;;;12.90;99.90;;;;;;5117221;27;20538;-77
2023/05/02 04:52:09;;;;;;;54.90;26.87;;;12.80;99.90;;;;;;5117968;27;20218;-77
2023/05/02 04:54:34;;;;;;;52.17;28.93;;;12.80;99.90;;;;;;5099238;27;20546;-76
2023/05/02 04:57:02;;;;;;;49.27;27.30;;;12.80;99.90;;;;;;5129482;27;20178;-76
2023/05/02 04:59:29;;;;;;;54.20;28.20;;;13.00;99.90;;;;;;5116575;28;20560;-76
2023/05/02 05:01:55;;;;;;;52.17;26.83;;;13.10;99.90;;;;;;5098967;28;20264;-77
2023/05/02 05:04:20;;;;;;;54.03;27.40;;;13.00;99.90;;;;;;5117084;27;20237;-77
2023/05/02 05:06:48;;;;;;;49.97;27.17;;;13.00;99.90;;;;;;5134789;27;20253;-76
2023/05/02 05:09:14;;;;;;;49.33;26.67;;;13.00;99.90;;;;;;5137186;27;20637;-77
2023/05/02 05:11:42;;;;;;;52.13;27.17;;;13.10;99.90;;;;;;5136725;27;20193;-77
2023/05/02 05:14:08;;;;;;;50.43;26.10;;;13.10;99.90;;;;;;5119274;27;20283;-77
2023/05/02 05:16:34;;;;;;;47.77;26.57;;;13.10;99.90;;;;;;5137502;27;20207;-76
2023/05/02 05:19:00;;;;;;;50.70;27.20;;;13.20;99.90;;;;;;5111760;28;20213;-76
2023/05/02 05:21:26;;;;;;;45.63;24.23;;;13.30;99.90;;;;;;5116109;28;20178;-76
2023/05/02 05:23:52;;;;;;;44.63;24.03;;;13.20;99.90;;;;;;5117805;27;20177;-77
2023/05/02 05:26:19;;;;;;;39.90;23.87;;;13.20;99.90;;;;;;5103448;27;20619;-77
2023/05/02 05:28:46;;;;;;;44.27;23.67;;;13.10;99.90;;;;;;5117037;27;20180;-77
2023/05/02 05:31:16;;;;;;;44.90;23.37;;;13.10;99.90;;;;;;5109476;28;20188;-77
2023/05/02 05:33:42;;;;;;;41.87;23.27;;;13.10;99.90;;;;;;5097443;28;20223;-75
2023/05/02 05:36:13;;;;;;;44.73;23.63;;;13.20;99.90;;;;;;5097169;28;20291;-76
2023/05/02 05:38:39;;;;;;;41.30;22.93;;;13.20;99.90;;;;;;5101505;27;20215;-74
2023/05/02 05:41:06;;;;;;;40.10;22.10;;;13.00;99.90;;;;;;5115734;27;20264;-74
2023/05/02 05:43:32;;;;;;;42.30;22.10;;;13.00;99.90;;;;;;5132882;27;20198;-74
2023/05/02 05:45:58;;;;;;;37.20;21.07;;;13.00;99.90;;;;;;5101758;28;20177;-74
2023/05/02 05:48:24;;;;;;;38.37;20.90;;;13.00;99.90;;;;;;5097818;27;20238;-75
2023/05/02 05:50:53;;;;;;;38.10;21.60;;;13.00;99.90;;;;;;5097199;28;20268;-75
2023/05/02 05:53:19;;;;;;;39.90;19.80;;;12.90;99.90;;;;;;5125094;27;20185;-74
2023/05/02 05:55:46;;;;;;;34.03;19.90;;;13.00;99.90;;;;;;5108977;27;20177;-74
2023/05/02 05:58:12;;;;;;;40.43;21.03;;;12.90;99.90;;;;;;5092131;27;20205;-75
2023/05/02 06:00:38;;;;;;;38.03;20.80;;;13.00;99.90;;;;;;5135657;27;20748;-76
2023/05/02 06:03:05;;;;;;;33.17;18.80;;;12.90;99.90;;;;;;5135542;27;20172;-75
2023/05/02 06:05:31;;;;;;;35.23;20.40;;;12.90;99.90;;;;;;5117162;27;20181;-76
2023/05/02 06:07:58;;;;;;;42.03;21.20;;;12.80;99.90;;;;;;5116989;27;20185;-74
2023/05/02 06:10:23;;;;;;;34.53;20.77;;;13.00;99.90;;;;;;5135366;27;20180;-76
2023/05/02 06:12:49;;;;;;;36.10;20.43;;;12.90;99.90;;;;;;5116788;27;20157;-75
2023/05/02 06:15:15;;;;;;;36.90;21.17;;;13.00;99.90;;;;;;5116882;27;20173;-75
2023/05/02 06:17:41;;;;;;;42.10;21.50;;;12.90;99.90;;;;;;5135359;27;20207;-75
2023/05/02 06:20:08;;;;;;;38.17;21.57;;;13.10;99.90;;;;;;5135544;27;20207;-75
2023/05/02 06:22:34;;;;;;;39.83;21.77;;;13.20;99.90;;;;;;5135268;27;20154;-75
2023/05/02 06:25:00;;;;;;;36.73;20.70;;;13.20;99.90;;;;;;5116768;27;20187;-75
2023/05/02 06:27:25;;;;;;;36.17;21.60;;;13.20;99.90;;;;;;5116705;27;20528;-75
2023/05/02 06:29:52;;;;;;;36.30;21.00;;;13.30;99.90;;;;;;5135130;27;20630;-75
2023/05/02 06:32:18;;;;;;;32.87;21.13;;;13.50;99.90;;;;;;5135001;27;20163;-75
2023/05/02 06:34:45;;;;;;;39.00;22.87;;;13.70;99.90;;;;;;5117581;27;20181;-76
2023/05/02 06:37:10;;;;;;;34.47;21.40;;;13.80;99.90;;;;;;5116521;27;20177;-75
2023/05/02 06:39:36;;;;;;;36.90;22.13;;;14.00;99.90;;;;;;5116100;27;20567;-75
2023/05/02 06:42:02;;;;;;;35.10;22.03;;;14.00;99.90;;;;;;5116435;27;20233;-75
2023/05/02 06:44:28;;;;;;;36.30;21.80;;;13.90;99.90;;;;;;5135239;27;20168;-76
2023/05/02 06:46:56;;;;;;;35.33;21.67;;;14.00;99.90;;;;;;5116275;27;20289;-75
2023/05/02 06:49:22;;;;;;;42.63;21.93;;;14.00;99.90;;;;;;5116765;27;20181;-75
2023/05/02 06:51:48;;;;;;;36.30;21.37;;;14.00;99.90;;;;;;5116603;27;20559;-75
2023/05/02 06:54:15;;;;;;;32.43;21.97;;;14.10;99.90;;;;;;5134799;27;20701;-75
2023/05/02 06:56:42;;;;;;;37.70;23.87;;;14.30;99.90;;;;;;5118035;27;20183;-75
2023/05/02 06:59:08;;;;;;;39.17;24.27;;;14.40;99.90;;;;;;5116957;27;20201;-75
2023/05/02 07:01:34;;;;;;;37.70;23.67;;;14.50;99.90;;;;;;5136501;27;20217;-74
2023/05/02 07:04:03;;;;;;;34.63;24.10;;;14.60;99.90;;;;;;5122667;27;20169;-76
2023/05/02 07:06:28;;;;;;;37.63;24.50;;;14.50;99.90;;;;;;5116493;27;20222;-74
2023/05/02 07:08:54;;;;;;;32.73;23.23;;;14.40;99.90;;;;;;5134649;27;20191;-75
2023/05/02 07:11:22;;;;;;;36.83;24.23;;;14.40;99.90;;;;;;5136507;27;20167;-75
2023/05/02 07:13:48;;;;;;;32.00;22.20;;;14.60;99.90;;;;;;5116569;27;20259;-76
2023/05/02 07:16:14;;;;;;;35.80;21.33;;;14.50;99.90;;;;;;5116370;27;20643;-76
2023/05/02 07:18:41;;;;;;;31.10;22.10;;;14.40;99.90;;;;;;5118417;27;20197;-76
2023/05/02 07:21:07;;;;;;;33.13;18.53;;;14.30;99.90;;;;;;5135000;27;20165;-75
2023/05/02 07:23:33;;;;;;;28.57;18.47;;;14.50;99.90;;;;;;5135322;27;20706;-75
2023/05/02 07:25:59;;;;;;;31.63;18.40;;;14.40;99.90;;;;;;5115741;27;20177;-74
2023/05/02 07:28:24;;;;;;;32.87;18.43;;;14.50;99.90;;;;;;5115840;27;20172;-74
2023/05/02 07:30:51;;;;;;;31.10;16.70;;;14.50;99.90;;;;;;5116218;27;20521;-74
2023/05/02 07:33:17;;;;;;;23.37;15.43;;;14.40;99.90;;;;;;5115735;27;20597;-76
2023/05/02 07:35:43;;;;;;;22.90;14.87;;;14.50;99.90;;;;;;5116340;27;20177;-74
2023/05/02 07:38:09;;;;;;;25.07;17.07;;;14.30;99.90;;;;;;5116445;27;20199;-74
2023/05/02 07:40:35;;;;;;;26.83;16.23;;;14.30;99.90;;;;;;5115691;27;20593;-76
2023/05/02 07:43:01;;;;;;;28.43;17.33;;;14.20;99.90;;;;;;5115656;27;20176;-74
2023/05/02 07:45:26;;;;;;;28.93;16.50;;;14.20;99.90;;;;;;5115692;27;20165;-75
2023/05/02 07:47:52;;;;;;;30.10;17.30;;;14.40;99.90;;;;;;5117952;27;20459;-75
2023/05/02 07:50:18;;;;;;;21.07;13.70;;;14.70;99.90;;;;;;5134385;27;20225;-75
2023/05/02 07:52:44;;;;;;;20.00;12.93;;;14.70;99.90;;;;;;5115346;28;20154;-75
2023/05/02 07:55:11;;;;;;;16.53;12.33;;;14.80;99.90;;;;;;5134020;28;20711;-74
2023/05/02 07:57:37;;;;;;;17.17;10.17;;;14.90;99.90;;;;;;5134599;28;20170;-74
2023/05/02 08:00:06;;;;;;;14.97;9.90;;;14.90;99.90;;;;;;5133974;28;20279;-75
2023/05/02 08:02:32;;;;;;;13.43;9.57;;;14.70;99.90;;;;;;5115472;28;20180;-74
2023/05/02 08:04:58;;;;;;;11.37;7.77;;;14.80;99.90;;;;;;5115349;28;20620;-76
2023/05/02 08:07:23;;;;;;;15.67;8.50;;;14.90;99.90;;;;;;5133932;28;20548;-74
2023/05/02 08:09:49;;;;;;;11.50;8.27;;;15.00;99.90;;;;;;5115667;28;20592;-75
2023/05/02 08:12:16;;;;;;;13.07;8.70;;;14.90;99.90;;;;;;5115412;28;20217;-75
2023/05/02 08:14:41;;;;;;;12.07;8.20;;;15.00;99.90;;;;;;5133755;28;20170;-74
2023/05/02 08:17:07;;;;;;;11.50;7.90;;;15.20;99.90;;;;;;5115475;28;20180;-75
2023/05/02 08:19:33;;;;;;;13.50;6.87;;;15.40;99.90;;;;;;5114853;28;20354;-75
2023/05/02 08:21:58;;;;;;;9.30;5.50;;;15.70;99.90;;;;;;5117010;27;20171;-75
2023/05/02 08:24:24;;;;;;;6.90;4.63;;;16.00;99.90;;;;;;5119491;27;20173;-76
2023/05/02 08:26:50;;;;;;;10.87;4.87;;;15.90;99.90;;;;;;5119163;27;20183;-76
2023/05/02 08:29:16;;;;;;;10.53;3.90;;;16.00;99.90;;;;;;5137561;27;20161;-76
2023/05/02 08:31:42;;;;;;;12.17;5.00;;;16.00;99.90;;;;;;5137876;27;20165;-76
2023/05/02 08:34:07;;;;;;;8.03;3.77;;;16.10;99.90;;;;;;5119335;27;20173;-76
2023/05/02 08:36:36;;;;;;;7.60;4.10;;;16.20;99.90;;;;;;5137742;27;20612;-76
2023/05/02 08:39:02;;;;;;;6.90;3.77;;;16.20;99.90;;;;;;5119233;27;20205;-76
2023/05/02 08:41:29;;;;;;;9.23;3.73;;;16.10;99.90;;;;;;5137455;27;20153;-75
2023/05/02 08:43:56;;;;;;;8.80;3.57;;;16.10;99.90;;;;;;5118950;27;20238;-76
2023/05/02 08:46:24;;;;;;;9.20;3.57;;;16.20;99.90;;;;;;5119186;27;20196;-75
2023/05/02 08:48:57;;;;;;;9.43;3.33;;;16.30;99.90;;;;;;5119127;27;20600;-75
2023/05/02 08:51:24;;;;;;;7.57;3.20;;;16.50;99.90;;;;;;5137477;27;20698;-75
2023/05/02 08:53:51;;;;;;;9.87;3.23;;;16.60;99.90;;;;;;5118988;27;20564;-75
2023/05/02 08:56:18;;;;;;;8.50;3.63;;;16.60;99.90;;;;;;5118580;27;20181;-75
2023/05/02 08:58:44;;;;;;;5.20;3.13;;;16.50;99.90;;;;;;5118662;27;20569;-75
2023/05/02 09:01:14;;;;;;;11.57;3.83;;;16.60;99.90;;;;;;5118789;27;20624;-77
2023/05/02 09:03:43;;;;;;;8.40;3.90;;;16.70;99.90;;;;;;5118674;27;20176;-76
2023/05/02 09:06:14;;;;;;;9.03;4.17;;;16.90;99.90;;;;;;5118809;27;20176;-77
2023/05/02 09:08:41;;;;;;;7.97;4.63;;;16.40;99.90;;;;;;5119033;27;20222;-78
2023/05/02 09:11:09;;;;;;;6.53;4.20;;;16.30;99.90;;;;;;5137340;27;20181;-78
2023/05/02 09:13:49;;;;;;;9.23;4.40;;;16.50;99.90;;;;;;5137456;27;20174;-79
2023/05/02 09:16:22;;;;;;;8.03;5.20;;;16.50;99.90;;;;;;5137666;27;20176;-79
2023/05/02 09:18:50;;;;;;;10.30;5.63;;;16.70;99.90;;;;;;5137827;27;20222;-78
2023/05/02 09:21:21;;;;;;;12.80;4.50;;;16.90;99.90;;;;;;5137309;27;20175;-77
2023/05/02 09:23:49;;;;;;;5.43;4.03;;;17.10;99.90;;;;;;5118601;27;20220;-79
2023/05/02 09:26:20;;;;;;;7.67;4.53;;;17.20;99.90;;;;;;5136918;27;20230;-78
2023/05/02 09:29:04;;;;;;;7.67;4.60;;;17.30;99.90;;;;;;5118656;27;20539;-79
2023/05/02 09:31:36;;;;;;;7.73;4.37;;;17.20;99.90;;;;;;5136855;27;20177;-77
2023/05/02 09:34:14;;;;;;;8.63;5.80;;;17.20;99.90;;;;;;5135858;27;20539;-78
2023/05/02 09:36:42;;;;;;;7.23;5.17;;;17.20;99.80;;;;;;5118564;27;20178;-77
2023/05/02 09:39:11;;;;;;;8.80;4.90;;;17.10;99.60;;;;;;5136708;27;20241;-77
2023/05/02 09:41:45;;;;;;;7.80;5.23;;;16.90;99.40;;;;;;5118139;27;20167;-77
2023/05/02 09:44:19;;;;;;;7.93;5.67;;;16.90;99.70;;;;;;5118458;27;20229;-76
2023/05/02 09:46:47;;;;;;;7.63;5.07;;;16.90;99.90;;;;;;5136556;27;20190;-77
2023/05/02 09:49:13;;;;;;;6.70;4.57;;;16.80;99.90;;;;;;5118297;27;20185;-78
2023/05/02 09:51:39;;;;;;;8.93;4.73;;;16.70;99.50;;;;;;5117984;27;20177;-78
2023/05/02 09:54:05;;;;;;;5.53;3.93;;;16.50;99.60;;;;;;5118214;27;20595;-78
2023/05/02 09:56:31;;;;;;;7.97;4.30;;;16.40;99.80;;;;;;5117883;27;20271;-78
2023/05/02 09:59:17;;;;;;;9.07;4.10;;;16.60;99.90;;;;;;5136454;27;20192;-77
2023/05/02 10:01:42;;;;;;;6.70;3.90;;;16.90;99.30;;;;;;5117587;27;20222;-77
2023/05/02 10:04:17;;;;;;;6.53;4.10;;;17.00;98.90;;;;;;5135960;27;20159;-77
2023/05/02 10:06:44;;;;;;;7.17;4.37;;;17.10;99.00;;;;;;5117360;27;20625;-79
2023/05/02 10:09:13;;;;;;;6.67;4.27;;;17.20;98.40;;;;;;5136013;27;20193;-77
2023/05/02 10:11:40;;;;;;;8.43;4.53;;;17.50;98.20;;;;;;5135629;27;20576;-78
2023/05/02 10:14:11;;;;;;;7.07;4.50;;;17.70;98.00;;;;;;5117254;27;20663;-78
2023/05/02 10:16:51;;;;;;;7.90;4.10;;;18.10;97.30;;;;;;5117173;27;20175;-77
2023/05/02 10:19:26;;;;;;;8.57;4.00;;;17.90;97.10;;;;;;5135282;27;20209;-77
2023/05/02 10:21:53;;;;;;;6.43;3.97;;;17.90;97.40;;;;;;5135307;27;20178;-76
2023/05/02 10:24:20;;;;;;;9.87;4.50;;;18.00;97.10;;;;;;5135263;27;20199;-76
2023/05/02 10:26:47;;;;;;;9.23;4.93;;;17.90;97.20;;;;;;5134975;27;20195;-76
2023/05/02 10:29:13;;;;;;;9.07;4.37;;;17.60;97.40;;;;;;5135030;27;20162;-78
2023/05/02 10:31:42;;;;;;;11.33;4.13;;;17.60;97.70;;;;;;5135158;27;20627;-77
2023/05/02 10:34:10;;;;;;;7.13;4.23;;;17.50;97.80;;;;;;5116949;27;20313;-77
2023/05/02 10:36:36;;;;;;;7.73;4.20;;;17.40;98.20;;;;;;5116963;27;20184;-77
2023/05/02 10:39:02;;;;;;;7.43;4.53;;;17.70;97.70;;;;;;5135008;27;20629;-77
2023/05/02 10:41:30;;;;;;;6.73;3.93;;;17.90;97.00;;;;;;5135297;27;20699;-77
2023/05/02 10:43:57;;;;;;;7.30;3.77;;;18.20;96.80;;;;;;5135337;27;20155;-77
2023/05/02 10:46:32;;;;;;;10.70;4.73;;;18.50;96.10;;;;;;5134930;27;20176;-77
2023/05/02 10:49:08;;;;;;;9.03;3.93;;;18.40;95.80;;;;;;5134744;27;20156;-77
2023/05/02 10:51:36;;;;;;;5.47;4.30;;;18.40;96.30;;;;;;5134652;27;20167;-76
2023/05/02 10:54:23;;;;;;;8.37;4.63;;;18.80;95.60;;;;;;5134999;27;20176;-76
2023/05/02 10:57:04;;;;;;;6.30;4.00;;;18.90;94.80;;;;;;5116404;27;20178;-76
2023/05/02 10:59:38;;;;;;;6.93;4.53;;;18.50;95.70;;;;;;5135058;27;20205;-77
2023/05/02 11:02:26;;;;;;;7.40;5.00;;;18.40;95.30;;;;;;5133908;27;20234;-76
2023/05/02 11:05:05;;;;;;;8.90;5.07;;;18.50;95.20;;;;;;5118331;27;20179;-76
2023/05/02 11:07:36;;;;;;;10.90;4.47;;;18.40;95.40;;;;;;5134365;27;20170;-77
2023/05/02 11:10:16;;;;;;;9.90;4.43;;;18.80;95.00;;;;;;5116301;27;20215;-76
2023/05/02 11:12:49;;;;;;;13.33;4.87;;;19.10;94.50;;;;;;5134801;27;20160;-77
2023/05/02 11:15:40;;;;;;;10.67;4.77;;;19.30;94.20;;;;;;5135080;27;20177;-76
2023/05/02 11:18:11;;;;;;;12.00;5.30;;;19.50;93.80;;;;;;5134539;27;20183;-76
2023/05/02 11:20:39;;;;;;;10.40;4.77;;;19.20;93.70;;;;;;5135484;27;20653;-76
2023/05/02 11:23:20;;;;;;;10.33;5.20;;;19.20;93.80;;;;;;5135170;27;20184;-77
2023/05/02 11:26:06;;;;;;;6.80;4.30;;;19.50;93.30;;;;;;5134947;27;20149;-77
2023/05/02 11:28:46;;;;;;;10.10;5.13;;;19.70;92.80;;;;;;5115714;27;20188;-76
2023/05/02 11:31:28;;;;;;;8.73;5.17;;;19.20;93.50;;;;;;5115726;27;20236;-77
2023/05/02 11:33:58;;;;;;;8.03;5.33;;;19.00;93.60;;;;;;5134305;27;20660;-76
2023/05/02 11:36:29;;;;;;;8.53;4.93;;;19.00;93.70;;;;;;5134814;27;20176;-77
2023/05/02 11:38:54;;;;;;;7.63;4.57;;;19.60;93.60;;;;;;5115982;27;20725;-77
2023/05/02 11:41:21;;;;;;;6.87;4.30;;;20.10;91.90;;;;;;5116176;28;20392;-77
2023/05/02 11:43:47;;;;;;;9.80;5.47;;;20.50;91.60;;;;;;5134218;27;20520;-77
2023/05/02 11:46:16;;;;;;;11.03;5.23;;;20.50;91.80;;;;;;5134469;27;20202;-76
2023/05/02 11:48:41;;;;;;;7.90;4.90;;;20.20;91.60;;;;;;5134282;27;20161;-75
2023/05/02 11:51:08;;;;;;;10.40;5.50;;;19.80;91.60;;;;;;5134362;27;20222;-77
2023/05/02 11:53:40;;;;;;;9.93;4.73;;;19.70;92.00;;;;;;5134761;28;20160;-77
2023/05/02 11:56:06;;;;;;;11.07;5.23;;;20.00;91.70;;;;;;5115402;28;20184;-77
2023/05/02 11:58:32;;;;;;;8.50;3.87;;;19.90;91.40;;;;;;5115913;28;20200;-77
2023/05/02 12:01:10;;;;;;;10.40;4.37;;;20.20;91.80;;;;;;5115513;28;20225;-77
2023/05/02 12:03:36;;;;;;;11.23;4.63;;;20.40;91.80;;;;;;5133583;28;20152;-76
2023/05/02 12:06:15;;;;;;;8.07;3.77;;;20.40;91.20;;;;;;5134086;28;20173;-77
2023/05/02 12:08:42;;;;;;;8.37;3.67;;;20.50;90.90;;;;;;5133439;28;20200;-77
2023/05/02 12:11:08;;;;;;;8.87;3.73;;;20.50;91.00;;;;;;5133721;28;20629;-77
2023/05/02 12:13:34;;;;;;;11.07;3.90;;;21.10;90.00;;;;;;5115093;28;20172;-76
2023/05/02 12:16:00;;;;;;;7.60;3.60;;;20.90;90.70;;;;;;5133586;28;20168;-77
2023/05/02 12:18:26;;;;;;;13.37;4.80;;;20.40;90.60;;;;;;5133287;28;20219;-77
2023/05/02 12:20:54;;;;;;;11.30;3.67;;;20.00;91.20;;;;;;5134005;28;20211;-77
2023/05/02 12:23:22;;;;;;;6.00;3.20;;;20.40;90.50;;;;;;5114834;28;20165;-77
2023/05/02 12:25:48;;;;;;;7.23;3.30;;;21.50;88.80;;;;;;5133612;28;20154;-77
2023/05/02 12:28:16;;;;;;;9.53;3.83;;;21.30;88.70;;;;;;5133454;28;20160;-77
2023/05/02 12:30:41;;;;;;;7.00;3.70;;;20.40;88.50;;;;;;5133377;28;20157;-77
2023/05/02 12:33:07;;;;;;;9.87;3.83;;;20.10;88.50;;;;;;5133621;28;20157;-76
2023/05/02 12:35:34;;;;;;;6.40;3.60;;;20.20;88.90;;;;;;5115086;28;20177;-76
2023/05/02 12:38:14;;;;;;;8.10;4.40;;;20.80;86.70;;;;;;5133679;28;20170;-76
2023/05/02 12:40:48;;;;;;;7.80;3.90;;;21.30;84.70;;;;;;5115062;28;20169;-76